createdAt,value
2022-11-16T00:01:47.450Z,84.15
2022-11-16T00:04:14.728Z,84.47
2022-11-16T00:06:41.850Z,83.87
2022-11-16T00:09:23.491Z,83.04
2022-11-16T00:12:12.627Z,84.15
2022-11-16T00:14:39.952Z,83.77
2022-11-16T00:17:06.905Z,83.87
2022-11-16T00:19:33.876Z,85.40
2022-11-16T00:22:01.017Z,84.42
2022-11-16T00:24:28.006Z,85.22
2022-11-16T00:26:56.339Z,84.54
2022-11-16T00:29:25.955Z,84.40
2022-11-16T00:31:54.323Z,83.97
2022-11-16T00:34:22.649Z,84.44
2022-11-16T00:36:50.529Z,85.31
2022-11-16T00:39:19.977Z,84.59
2022-11-16T00:41:48.262Z,84.67
2022-11-16T00:44:16.084Z,84.62
2022-11-16T00:46:43.328Z,83.70
2022-11-16T00:49:11.070Z,84.27
2022-11-16T00:51:40.354Z,83.95
2022-11-16T00:54:09.457Z,84.46
2022-11-16T00:56:38.088Z,83.60
2022-11-16T00:59:06.698Z,83.59
2022-11-16T01:01:34.239Z,83.30
2022-11-16T01:04:01.520Z,83.99
2022-11-16T01:06:28.556Z,84.25
2022-11-16T01:08:55.535Z,83.41
2022-11-16T01:11:42.807Z,83.32
2022-11-16T01:14:10.477Z,84.34
2022-11-16T01:16:37.827Z,83.92
2022-11-16T01:19:05.384Z,83.67
2022-11-16T01:21:33.134Z,83.62
2022-11-16T01:24:00.739Z,84.13
2022-11-16T01:26:28.214Z,85.90
2022-11-16T01:28:55.726Z,85.75
2022-11-16T01:31:23.062Z,85.26
2022-11-16T01:33:51.847Z,85.03
2022-11-16T01:36:27.758Z,85.15
2022-11-16T01:38:57.339Z,85.78
2022-11-16T01:41:28.319Z,86.05
2022-11-16T01:44:01.364Z,85.22
2022-11-16T01:46:37.243Z,85.63
2022-11-16T01:49:12.104Z,85.83
2022-11-16T01:51:42.558Z,86.31
2022-11-16T01:54:13.437Z,85.33
2022-11-16T01:56:52.480Z,85.43
2022-11-16T01:59:34.591Z,86.54
2022-11-16T02:02:02.786Z,86.80
2022-11-16T02:04:30.668Z,86.03
2022-11-16T02:08:04.271Z,85.15
2022-11-16T02:11:33.675Z,85.97
2022-11-16T02:14:42.509Z,86.33
2022-11-16T02:17:48.440Z,86.26
2022-11-16T02:20:44.869Z,85.68
2022-11-16T02:23:33.841Z,84.62
2022-11-16T02:26:25.780Z,84.13
2022-11-16T02:29:24.629Z,83.87
2022-11-16T02:32:19.900Z,84.17
2022-11-16T02:34:57.442Z,84.28
2022-11-16T02:37:27.352Z,84.74
2022-11-16T02:39:59.611Z,84.14
2022-11-16T02:42:35.203Z,84.11
2022-11-16T02:45:08.813Z,84.19
2022-11-16T02:47:37.097Z,83.22
2022-11-16T02:50:12.835Z,83.18
2022-11-16T02:52:40.570Z,82.67
2022-11-16T02:55:10.184Z,83.23
2022-11-16T02:57:59.032Z,82.50
2022-11-16T03:01:06.938Z,82.65
2022-11-16T03:03:55.019Z,82.70
2022-11-16T03:06:35.272Z,82.18
2022-11-16T03:09:10.793Z,82.57
2022-11-16T03:11:59.825Z,84.01
2022-11-16T03:14:48.636Z,82.39
2022-11-16T03:17:44.717Z,81.54
2022-11-16T03:20:27.645Z,81.62
2022-11-16T03:23:03.223Z,82.23
2022-11-16T03:25:38.757Z,80.75
2022-11-16T03:28:31.802Z,81.83
2022-11-16T03:31:16.905Z,80.58
2022-11-16T03:33:50.559Z,80.59
2022-11-16T03:36:32.112Z,80.47
2022-11-16T03:39:07.940Z,82.09
2022-11-16T03:41:38.089Z,80.86
2022-11-16T03:44:09.743Z,81.34
2022-11-16T03:46:37.046Z,81.56
2022-11-16T03:49:05.858Z,81.27
2022-11-16T03:51:36.382Z,82.37
2022-11-16T03:54:04.800Z,82.42
2022-11-16T03:56:33.062Z,83.04
2022-11-16T03:59:01.119Z,82.01
2022-11-16T04:01:29.836Z,82.15
2022-11-16T04:03:56.948Z,82.03
2022-11-16T04:06:43.403Z,81.77
2022-11-16T04:09:22.892Z,81.61
2022-11-16T04:12:09.556Z,80.20
2022-11-16T04:14:57.058Z,80.92
2022-11-16T04:17:45.383Z,79.47
2022-11-16T04:20:33.764Z,80.40
2022-11-16T04:23:29.657Z,79.71
2022-11-16T04:25:57.510Z,80.60
2022-11-16T04:28:31.026Z,81.11
2022-11-16T04:31:23.413Z,81.63
2022-11-16T04:34:22.764Z,81.36
2022-11-16T04:37:11.571Z,81.73
2022-11-16T04:39:40.217Z,82.06
2022-11-16T04:42:19.298Z,81.58
2022-11-16T04:45:07.562Z,81.57
2022-11-16T04:47:41.378Z,80.48
2022-11-16T04:50:08.995Z,80.42
2022-11-16T04:52:36.122Z,80.22
2022-11-16T04:55:05.076Z,79.43
2022-11-16T04:57:32.865Z,79.90
2022-11-16T05:00:00.814Z,79.74
2022-11-16T05:02:28.100Z,79.79
2022-11-16T05:04:57.970Z,80.79
2022-11-16T05:07:26.833Z,81.21
2022-11-16T05:10:01.309Z,81.31
2022-11-16T05:12:28.844Z,81.25
2022-11-16T05:14:59.466Z,79.97
2022-11-16T05:17:29.824Z,80.70
2022-11-16T05:20:18.117Z,80.47
2022-11-16T05:22:58.457Z,80.40
2022-11-16T05:25:36.145Z,80.24
2022-11-16T05:28:06.159Z,81.67
2022-11-16T05:30:37.513Z,81.21
2022-11-16T05:33:04.683Z,81.01
2022-11-16T05:35:34.953Z,81.05
2022-11-16T05:38:02.443Z,80.53
2022-11-16T05:40:32.892Z,81.13
2022-11-16T05:43:01.124Z,80.91
2022-11-16T05:45:31.349Z,80.86
2022-11-16T05:48:00.399Z,80.81
2022-11-16T05:50:27.698Z,80.05
2022-11-16T05:53:07.772Z,79.96
2022-11-16T05:55:36.107Z,79.69
2022-11-16T05:58:03.330Z,80.45
2022-11-16T06:00:30.356Z,80.52
2022-11-16T06:02:59.911Z,80.51
2022-11-16T06:05:32.467Z,80.16
2022-11-16T06:08:03.576Z,79.14
2022-11-16T06:10:30.986Z,80.75
2022-11-16T06:12:58.639Z,80.20
2022-11-16T06:15:25.950Z,81.06
2022-11-16T06:17:52.916Z,80.66
2022-11-16T06:20:21.532Z,80.61
2022-11-16T06:22:48.801Z,82.02
2022-11-16T06:25:16.178Z,81.32
2022-11-16T06:27:44.764Z,81.19
2022-11-16T06:30:16.935Z,81.56
2022-11-16T06:32:44.790Z,80.39
2022-11-16T06:35:12.145Z,80.07
2022-11-16T06:37:40.134Z,80.82
2022-11-16T06:40:09.692Z,80.37
2022-11-16T06:42:41.891Z,80.67
2022-11-16T06:45:11.330Z,81.15
2022-11-16T06:47:42.040Z,80.98
2022-11-16T06:50:09.789Z,81.10
2022-11-16T06:52:36.847Z,81.43
2022-11-16T06:55:04.345Z,80.74
2022-11-16T06:57:35.862Z,81.39
2022-11-16T07:00:05.376Z,81.23
2022-11-16T07:02:38.663Z,80.94
2022-11-16T07:05:08.494Z,81.34
2022-11-16T07:07:35.599Z,80.79
2022-11-16T07:10:04.986Z,81.59
2022-11-16T07:12:32.384Z,81.19
2022-11-16T07:15:01.283Z,80.17
2022-11-16T07:17:31.311Z,79.69
2022-11-16T07:19:58.631Z,79.21
2022-11-16T07:22:26.120Z,79.28
2022-11-16T07:24:53.994Z,78.88
2022-11-16T07:27:22.016Z,77.68
2022-11-16T07:29:51.148Z,77.49
2022-11-16T07:32:31.128Z,76.92
2022-11-16T07:35:11.599Z,77.42
2022-11-16T07:37:39.620Z,77.62
2022-11-16T07:40:08.924Z,77.84
2022-11-16T07:42:37.299Z,76.64
2022-11-16T07:45:15.468Z,77.17
2022-11-16T07:47:53.318Z,76.49
2022-11-16T07:50:46.642Z,75.78
2022-11-16T07:53:15.294Z,76.26
2022-11-16T07:55:42.266Z,74.38
2022-11-16T07:58:11.045Z,74.99
2022-11-16T08:00:38.808Z,73.27
2022-11-16T08:03:16.475Z,73.78
2022-11-16T08:05:47.005Z,73.86
2022-11-16T08:08:14.148Z,75.02
2022-11-16T08:10:42.265Z,73.56
2022-11-16T08:13:09.269Z,72.82
2022-11-16T08:15:36.373Z,72.78
2022-11-16T08:18:06.755Z,74.12
2022-11-16T08:20:34.861Z,73.66
2022-11-16T08:23:02.294Z,73.42
2022-11-16T08:25:33.143Z,73.47
2022-11-16T08:28:00.470Z,73.76
2022-11-16T08:30:28.344Z,72.33
2022-11-16T08:32:55.905Z,74.03
2022-11-16T08:35:23.339Z,73.41
2022-11-16T08:37:50.564Z,74.48
2022-11-16T08:40:18.315Z,74.16
2022-11-16T08:42:48.452Z,72.90
2022-11-16T08:45:16.187Z,72.60
2022-11-16T08:47:49.882Z,72.68
2022-11-16T08:50:19.524Z,72.88
2022-11-16T08:52:48.033Z,72.08
2022-11-16T08:55:19.009Z,72.97
2022-11-16T08:57:46.396Z,73.57
2022-11-16T09:00:18.220Z,73.22
2022-11-16T09:02:45.323Z,73.34
2022-11-16T09:05:12.996Z,73.22
2022-11-16T09:07:40.873Z,72.06
2022-11-16T09:10:08.560Z,71.76
2022-11-16T09:12:36.515Z,72.75
2022-11-16T09:15:05.440Z,72.88
2022-11-16T09:17:32.861Z,72.37
2022-11-16T09:19:59.779Z,71.27
2022-11-16T09:22:27.130Z,70.44
2022-11-16T09:24:54.044Z,71.16
2022-11-16T09:30:12.386Z,71.71
2022-11-16T09:32:39.330Z,71.75
2022-11-16T09:35:07.153Z,71.61
2022-11-16T09:37:35.213Z,71.67
2022-11-16T09:40:02.294Z,71.17
2022-11-16T09:42:49.460Z,72.00
2022-11-16T09:45:36.581Z,71.77
2022-11-16T09:48:06.565Z,70.80
2022-11-16T09:51:01.736Z,70.51
2022-11-16T09:53:45.193Z,71.72
2022-11-16T09:56:22.460Z,70.69
2022-11-16T09:59:09.394Z,70.50
2022-11-16T10:02:16.585Z,71.38
2022-11-16T10:05:20.634Z,69.39
2022-11-16T10:08:04.564Z,69.98
2022-11-16T10:10:38.964Z,69.25
2022-11-16T10:14:00.001Z,71.12
2022-11-16T10:16:36.407Z,70.62
2022-11-16T10:19:40.435Z,70.89
2022-11-16T10:22:38.155Z,70.24
2022-11-16T10:25:20.907Z,70.36
2022-11-16T10:28:25.066Z,70.73
2022-11-16T10:31:33.438Z,69.53
2022-11-16T10:34:06.124Z,69.03
2022-11-16T10:36:38.558Z,70.27
2022-11-16T10:39:15.089Z,70.56
2022-11-16T10:41:52.126Z,70.15
2022-11-16T10:44:38.855Z,69.51
2022-11-16T10:47:47.128Z,68.46
2022-11-16T10:50:42.311Z,69.45
2022-11-16T10:53:26.367Z,70.04
2022-11-16T10:56:27.316Z,68.92
2022-11-16T10:59:01.004Z,68.29
2022-11-16T11:01:48.012Z,68.63
2022-11-16T11:04:30.426Z,69.01
2022-11-16T11:07:22.024Z,69.22
2022-11-16T11:09:55.866Z,68.96
2022-11-16T11:12:41.181Z,68.63
2022-11-16T11:15:11.362Z,69.33
2022-11-16T11:17:44.742Z,69.06
2022-11-16T11:20:22.994Z,69.73
2022-11-16T11:22:56.574Z,69.63
2022-11-16T11:25:34.563Z,67.84
2022-11-16T11:28:35.196Z,66.68
2022-11-16T11:31:16.891Z,66.32
2022-11-16T11:33:52.171Z,67.56
2022-11-16T11:36:45.740Z,67.86
2022-11-16T11:39:12.677Z,67.49
2022-11-16T11:41:43.333Z,70.26
2022-11-16T11:44:13.273Z,67.24
2022-11-16T11:47:35.291Z,67.48
2022-11-16T11:49:50.034Z,67.51
2022-11-16T11:52:42.472Z,68.07
2022-11-16T11:55:17.763Z,65.98
2022-11-16T11:57:49.260Z,67.30
2022-11-16T12:00:18.098Z,66.11
2022-11-16T12:03:12.870Z,65.33
2022-11-16T12:05:54.271Z,65.83
2022-11-16T12:08:43.910Z,66.24
2022-11-16T12:11:19.905Z,66.64
2022-11-16T12:14:14.828Z,68.36
2022-11-16T12:17:26.028Z,67.37
2022-11-16T12:20:23.426Z,68.09
2022-11-16T12:23:03.935Z,66.51
2022-11-16T12:26:03.491Z,67.23
2022-11-16T12:29:19.089Z,65.63
2022-11-16T12:32:27.867Z,67.18
2022-11-16T12:35:23.699Z,66.00
2022-11-16T12:38:04.057Z,65.49
2022-11-16T12:41:34.511Z,65.08
2022-11-16T12:44:17.104Z,64.79
2022-11-16T12:47:23.524Z,67.28
2022-11-16T12:50:26.166Z,64.41
2022-11-16T12:53:26.772Z,65.63
2022-11-16T12:56:21.343Z,65.13
2022-11-16T12:59:15.136Z,61.91
2022-11-16T13:02:15.954Z,62.28
2022-11-16T13:08:04.960Z,62.67
2022-11-16T13:10:36.860Z,65.25
2022-11-16T13:13:36.036Z,65.42
2022-11-16T13:16:06.993Z,67.27
2022-11-16T13:18:40.010Z,64.92
2022-11-16T13:21:21.761Z,64.85
2022-11-16T13:24:14.021Z,64.61
2022-11-16T13:27:05.599Z,64.50
2022-11-16T13:29:39.705Z,63.46
2022-11-16T13:32:18.971Z,65.43
2022-11-16T13:34:47.718Z,64.69
2022-11-16T13:37:36.540Z,63.10
2022-11-16T13:40:04.599Z,62.93
2022-11-16T13:42:44.728Z,62.51
2022-11-16T13:45:20.920Z,62.68
2022-11-16T13:47:59.033Z,63.69
2022-11-16T13:50:38.148Z,63.36
2022-11-16T13:56:03.408Z,61.83
2022-11-16T13:58:32.735Z,62.57
2022-11-16T14:01:17.241Z,63.08
2022-11-16T14:03:52.545Z,60.89
2022-11-16T14:06:19.641Z,59.84
2022-11-16T14:08:52.069Z,61.02
2022-11-16T14:11:33.971Z,60.37
2022-11-16T14:14:09.602Z,59.81
2022-11-16T14:16:50.981Z,59.71
2022-11-16T14:19:48.543Z,62.26
2022-11-16T14:22:54.219Z,60.73
2022-11-16T14:25:59.559Z,60.92
2022-11-16T14:28:46.673Z,61.27
2022-11-16T14:31:29.580Z,61.48
2022-11-16T14:34:00.175Z,62.12
2022-11-16T14:36:46.168Z,63.39
2022-11-16T14:39:43.592Z,63.39
2022-11-16T14:42:48.151Z,63.43
2022-11-16T14:45:32.921Z,63.65
2022-11-16T14:48:21.888Z,64.23
2022-11-16T14:51:07.984Z,65.38
2022-11-16T14:53:39.570Z,65.02
2022-11-16T14:56:18.900Z,66.73
2022-11-16T14:58:54.410Z,67.49
2022-11-16T15:01:29.718Z,68.67
2022-11-16T15:04:04.931Z,69.02
2022-11-16T15:06:58.415Z,68.58
2022-11-16T15:09:40.554Z,68.12
2022-11-16T15:12:35.120Z,69.19
2022-11-16T15:15:08.824Z,69.65
2022-11-16T15:17:43.320Z,69.48
2022-11-16T15:20:16.706Z,67.57
2022-11-16T15:22:48.059Z,67.52
2022-11-16T15:25:34.843Z,68.06
2022-11-16T15:28:21.416Z,66.58
2022-11-16T15:30:56.871Z,65.87
2022-11-16T15:33:37.445Z,65.45
2022-11-16T15:36:25.605Z,65.97
2022-11-16T15:38:55.685Z,66.04
2022-11-16T15:41:25.415Z,64.78
2022-11-16T15:44:13.223Z,64.67
2022-11-16T15:46:42.099Z,64.11
2022-11-16T15:49:38.769Z,64.29
2022-11-16T15:52:06.330Z,65.73
2022-11-16T15:54:54.983Z,66.50
2022-11-16T15:57:24.108Z,68.29
2022-11-16T15:59:57.163Z,69.34
2022-11-16T16:02:27.774Z,68.71
2022-11-16T16:04:54.719Z,66.65
2022-11-16T16:07:43.263Z,66.85
2022-11-16T16:10:19.785Z,67.79
2022-11-16T16:12:51.075Z,67.46
2022-11-16T16:15:26.979Z,67.70
2022-11-16T16:17:54.918Z,66.66
2022-11-16T16:20:25.776Z,67.18
2022-11-16T16:22:54.290Z,68.03
2022-11-16T16:25:34.172Z,67.61
2022-11-16T16:28:01.454Z,68.51
2022-11-16T16:30:30.374Z,68.61
2022-11-16T16:32:59.011Z,68.33
2022-11-16T16:35:26.736Z,68.62
2022-11-16T16:38:01.599Z,68.31
2022-11-16T16:40:29.468Z,68.22
2022-11-16T16:42:58.106Z,70.12
2022-11-16T16:45:32.860Z,71.63
2022-11-16T16:48:00.852Z,71.21
2022-11-16T16:50:27.870Z,71.03
2022-11-16T16:52:54.838Z,70.92
2022-11-16T16:55:22.106Z,72.64
2022-11-16T16:57:49.038Z,73.57
2022-11-16T17:00:17.015Z,72.41
2022-11-16T17:02:44.257Z,71.95
2022-11-16T17:05:11.350Z,72.55
2022-11-16T17:07:38.451Z,72.76
2022-11-16T17:10:06.313Z,73.08
2022-11-16T17:12:33.309Z,73.50
2022-11-16T17:15:00.264Z,75.07
2022-11-16T17:17:27.491Z,73.39
2022-11-16T17:19:54.648Z,73.08
2022-11-16T17:22:21.595Z,71.70
2022-11-16T17:24:48.820Z,74.61
2022-11-16T17:27:15.801Z,75.78
2022-11-16T17:29:42.693Z,72.63
2022-11-16T17:32:09.858Z,73.22
2022-11-16T17:34:39.888Z,73.61
2022-11-16T17:37:07.197Z,73.99
2022-11-16T17:39:34.157Z,72.33
2022-11-16T17:42:01.699Z,72.21
2022-11-16T17:44:28.717Z,72.71
2022-11-16T17:46:55.744Z,73.23
2022-11-16T17:49:22.676Z,73.79
2022-11-16T17:51:49.677Z,71.48
2022-11-16T17:54:16.662Z,73.73
2022-11-16T17:56:43.669Z,74.28
2022-11-16T17:59:10.614Z,74.46
2022-11-16T18:01:37.862Z,72.49
2022-11-16T18:04:04.788Z,72.33
2022-11-16T18:09:22.094Z,76.66
2022-11-16T18:11:49.037Z,73.86
2022-11-16T18:14:16.029Z,74.43
2022-11-16T18:16:44.309Z,73.06
2022-11-16T18:19:17.693Z,73.17
2022-11-16T18:21:46.645Z,72.47
2022-11-16T18:24:14.144Z,72.94
2022-11-16T18:26:41.806Z,72.40
2022-11-16T18:29:12.707Z,75.12
2022-11-16T18:31:40.683Z,73.67
2022-11-16T18:34:07.768Z,75.73
2022-11-16T18:36:34.688Z,74.04
2022-11-16T18:39:01.649Z,74.46
2022-11-16T18:41:30.080Z,73.96
2022-11-16T18:43:59.154Z,74.16
2022-11-16T18:46:30.414Z,74.81
2022-11-16T18:48:58.796Z,73.15
2022-11-16T18:51:27.564Z,72.48
2022-11-16T18:53:55.365Z,73.88
2022-11-16T18:56:23.094Z,73.77
2022-11-16T18:58:52.620Z,74.26
2022-11-16T19:01:23.372Z,75.32
2022-11-16T19:03:52.231Z,77.03
2022-11-16T19:06:19.489Z,76.92
2022-11-16T19:08:53.942Z,76.43
2022-11-16T19:11:23.996Z,77.24
2022-11-16T19:14:07.438Z,75.32
2022-11-16T19:16:34.525Z,76.15
2022-11-16T19:19:01.754Z,75.96
2022-11-16T19:21:29.036Z,75.65
2022-11-16T19:23:57.271Z,75.76
2022-11-16T19:26:27.304Z,75.48
2022-11-16T19:28:55.024Z,75.95
2022-11-16T19:31:28.809Z,75.76
2022-11-16T19:34:05.068Z,76.60
2022-11-16T19:36:35.356Z,75.98
2022-11-16T19:39:03.671Z,75.56
2022-11-16T19:41:30.936Z,75.60
2022-11-16T19:44:01.454Z,74.50
2022-11-16T19:46:31.917Z,74.40
2022-11-16T19:48:59.555Z,72.60
2022-11-16T19:51:32.598Z,71.24
2022-11-16T19:54:01.710Z,70.30
2022-11-16T19:56:28.842Z,70.98
2022-11-16T19:58:56.161Z,70.64
2022-11-16T20:01:27.857Z,72.25
2022-11-16T20:03:58.546Z,71.39
2022-11-16T20:06:32.360Z,72.57
2022-11-16T20:09:08.315Z,71.69
2022-11-16T20:11:38.272Z,72.24
2022-11-16T20:14:09.399Z,71.34
2022-11-16T20:16:40.055Z,72.07
2022-11-16T20:19:09.460Z,71.23
2022-11-16T20:21:39.848Z,71.21
2022-11-16T20:24:10.468Z,71.20
2022-11-16T20:26:42.134Z,72.92
2022-11-16T20:29:15.119Z,72.09
2022-11-16T20:31:44.250Z,70.50
2022-11-16T20:34:16.674Z,72.08
2022-11-16T20:36:46.883Z,72.59
2022-11-16T20:39:16.241Z,71.67
2022-11-16T20:41:44.107Z,71.33
2022-11-16T20:44:16.580Z,69.33
2022-11-16T20:46:45.085Z,69.45
2022-11-16T20:49:12.229Z,73.83
2022-11-16T20:51:39.545Z,74.07
2022-11-16T20:54:07.128Z,73.71
2022-11-16T20:56:34.362Z,73.67
2022-11-16T20:59:01.816Z,72.90
2022-11-16T21:01:31.682Z,72.96
2022-11-16T21:04:04.668Z,73.04
2022-11-16T21:06:32.986Z,72.92
2022-11-16T21:09:00.767Z,72.49
2022-11-16T21:11:53.031Z,74.28
2022-11-16T21:14:20.758Z,74.95
2022-11-16T21:16:47.931Z,74.58
2022-11-16T21:19:16.109Z,73.37
2022-11-16T21:21:44.029Z,74.18
2022-11-16T21:24:12.048Z,73.90
2022-11-16T21:26:39.285Z,73.59
2022-11-16T21:29:06.825Z,73.78
2022-11-16T21:31:36.295Z,72.68
2022-11-16T21:34:03.856Z,73.29
2022-11-16T21:36:32.154Z,72.68
2022-11-16T21:38:59.851Z,74.16
2022-11-16T21:41:27.322Z,74.37
2022-11-16T21:43:54.813Z,72.24
2022-11-16T21:46:25.287Z,71.49
2022-11-16T21:48:54.327Z,72.35
2022-11-16T21:51:24.798Z,72.63
2022-11-16T21:53:52.394Z,72.50
2022-11-16T21:56:25.671Z,73.47
2022-11-16T21:58:53.920Z,73.62
2022-11-16T22:01:22.766Z,74.29
2022-11-16T22:04:09.900Z,74.20
2022-11-16T22:06:55.219Z,74.99
2022-11-16T22:09:22.417Z,76.68
2022-11-16T22:11:49.369Z,78.07
2022-11-16T22:14:16.477Z,77.56
2022-11-16T22:16:44.144Z,78.57
2022-11-16T22:19:11.113Z,78.88
2022-11-16T22:21:38.236Z,77.69
2022-11-16T22:24:05.580Z,75.52
2022-11-16T22:26:32.591Z,74.18
2022-11-16T22:28:59.884Z,73.74
2022-11-16T22:31:27.296Z,76.67
2022-11-16T22:33:54.382Z,78.51
2022-11-16T22:36:21.522Z,74.65
2022-11-16T22:38:48.489Z,74.59
2022-11-16T22:41:15.797Z,75.29
2022-11-16T22:43:42.854Z,75.72
2022-11-16T22:46:10.911Z,76.14
2022-11-16T22:48:41.302Z,76.61
2022-11-16T22:51:21.240Z,78.08
2022-11-16T22:53:52.036Z,78.12
2022-11-16T22:56:19.076Z,78.91
2022-11-16T22:58:46.215Z,77.21
2022-11-16T23:01:13.262Z,74.54
2022-11-16T23:03:40.872Z,74.79
2022-11-16T23:06:08.631Z,74.68
2022-11-16T23:08:36.538Z,74.65
2022-11-16T23:11:33.051Z,74.71
2022-11-16T23:14:19.226Z,73.24
2022-11-16T23:16:46.813Z,72.98
2022-11-16T23:19:35.066Z,75.08
2022-11-16T23:22:21.867Z,68.10
2022-11-16T23:25:08.361Z,65.43
2022-11-16T23:27:55.000Z,68.15
2022-11-16T23:30:22.217Z,67.84
2022-11-16T23:32:49.798Z,68.49
2022-11-16T23:35:17.588Z,67.54
2022-11-16T23:37:54.721Z,65.77
2022-11-16T23:40:25.052Z,66.98
2022-11-16T23:43:12.034Z,67.33
2022-11-16T23:45:40.746Z,65.49
2022-11-16T23:48:09.950Z,65.38
2022-11-16T23:50:37.203Z,65.72
2022-11-16T23:53:06.064Z,66.17
2022-11-16T23:55:35.582Z,65.48
2022-11-16T23:58:02.707Z,62.07
